Time;durP1;ratioP1;P1;durP2;ratioP2;P2;SDS_P1;SDS_P2;PMS_P1;PMS_P2;Temp;Humidity;BMP_temperature;BMP_pressure;BME280_temperature;BME280_humidity;BME280_pressure;Samples;Min_cycle;Max_cycle;Signal;HPM_P1;HPM_P2
2023/08/31 00:00:44;;;;;;;3.08;1.10;;;;;;;15.34;73.97;99631.59;10290735;28;20044;-69
2023/08/31 00:05:46;;;;;;;6.93;2.30;;;;;;;15.36;73.89;99630.31;10288153;28;20067;-70
2023/08/31 00:10:58;;;;;;;2.75;1.33;;;;;;;15.34;73.77;99637.84;10291640;28;20105;-70
2023/08/31 00:15:59;;;;;;;2.13;1.02;;;;;;;15.36;73.69;99640.34;10291688;28;20050;-69
2023/08/31 00:21:02;;;;;;;1.95;1.17;;;;;;;15.34;73.54;99645.16;10292757;28;20402;-70
2023/08/31 00:26:03;;;;;;;3.15;1.33;;;;;;;15.31;73.84;99640.19;10284750;28;20055;-69
2023/08/31 00:31:05;;;;;;;2.70;1.27;;;;;;;15.29;73.81;99631.47;10292649;28;20344;-70
2023/08/31 00:36:06;;;;;;;4.93;1.40;;;;;;;15.39;73.75;99642.59;10281012;28;20348;-70
2023/08/31 00:41:08;;;;;;;2.42;1.40;;;;;;;15.41;73.62;99645.91;10285347;28;20054;-69
2023/08/31 00:46:09;;;;;;;2.88;2.08;;;;;;;15.44;73.53;99646.28;10285346;28;20078;-69
2023/08/31 00:51:11;;;;;;;4.93;1.73;;;;;;;15.45;73.35;99652.53;10283870;28;20030;-69
2023/08/31 00:56:13;;;;;;;3.65;1.90;;;;;;;15.43;73.45;99649.22;10287519;28;20067;-70
2023/08/31 01:01:22;;;;;;;3.08;1.35;;;;;;;15.41;73.35;99654.03;10284607;28;20299;-69
2023/08/31 01:06:41;;;;;;;4.50;1.30;;;;;;;15.39;73.28;99651.56;10283544;28;20184;-69
2023/08/31 01:11:49;;;;;;;5.40;1.60;;;;;;;15.33;73.56;99657.06;10284255;28;20098;-70
2023/08/31 01:16:53;;;;;;;2.33;1.20;;;;;;;15.29;73.43;99653.13;10283871;28;20075;-69
2023/08/31 01:21:59;;;;;;;6.72;1.38;;;;;;;15.25;73.43;99664.41;10284899;28;20102;-69
2023/08/31 01:27:01;;;;;;;6.30;2.00;;;;;;;15.17;73.57;99670.09;10286094;28;20119;-69
2023/08/31 01:32:06;;;;;;;6.40;1.50;;;;;;;15.18;73.53;99658.22;10285032;28;20070;-67
2023/08/31 01:37:16;;;;;;;3.92;1.83;;;;;;;15.18;73.63;99665.50;10285646;28;20109;-69
2023/08/31 01:42:18;;;;;;;2.80;1.20;;;;;;;15.19;73.47;99668.00;10285032;28;20438;-69
2023/08/31 01:47:19;;;;;;;4.75;1.40;;;;;;;15.24;73.57;99668.19;10284960;28;20063;-69
2023/08/31 01:52:21;;;;;;;2.75;1.40;;;;;;;15.27;73.31;99666.88;10280596;28;20062;-68
2023/08/31 01:57:22;;;;;;;3.50;2.00;;;;;;;15.24;73.65;99661.91;10277444;28;20110;-68
2023/08/31 02:02:23;;;;;;;7.88;2.30;;;;;;;15.21;73.86;99667.78;10288545;28;20047;-69
2023/08/31 02:07:25;;;;;;;5.57;1.92;;;;;;;15.22;73.76;99675.66;10283812;28;20220;-69
2023/08/31 02:12:26;;;;;;;4.60;1.80;;;;;;;15.22;73.80;99669.44;10281829;28;20122;-68
2023/08/31 02:17:28;;;;;;;3.95;1.67;;;;;;;15.25;73.96;99680.66;10282332;28;20074;-70
2023/08/31 02:22:35;;;;;;;3.45;2.22;;;;;;;15.25;74.10;99693.38;10281974;28;20042;-68
2023/08/31 02:27:37;;;;;;;8.43;2.08;;;;;;;15.37;73.96;99688.03;10279452;28;20343;-70
2023/08/31 02:32:39;;;;;;;5.10;2.85;;;;;;;15.49;73.82;99694.38;10282321;28;20328;-68
2023/08/31 02:37:41;;;;;;;4.38;2.58;;;;;;;15.49;73.91;99699.78;10289885;28;20075;-70
2023/08/31 02:42:42;;;;;;;15.60;3.30;;;;;;;15.49;74.12;99696.25;10290817;28;20251;-71
2023/08/31 02:47:44;;;;;;;5.22;2.60;;;;;;;15.54;74.17;99699.94;10283781;28;20050;-70
2023/08/31 02:52:45;;;;;;;6.13;3.55;;;;;;;15.61;74.17;99697.97;10282926;28;20071;-70
2023/08/31 02:57:47;;;;;;;9.65;3.47;;;;;;;15.58;74.16;99689.47;10283027;28;20367;-70
2023/08/31 03:02:52;;;;;;;7.82;3.17;;;;;;;15.57;74.29;99690.53;10279127;28;20055;-70
2023/08/31 03:07:53;;;;;;;5.97;2.83;;;;;;;15.63;74.38;99697.75;10280965;28;20592;-68
2023/08/31 03:12:54;;;;;;;4.10;2.42;;;;;;;15.66;74.38;99695.44;10281870;28;20062;-68
2023/08/31 03:17:56;;;;;;;5.82;2.75;;;;;;;15.58;74.65;99689.47;10285868;28;20323;-69
2023/08/31 03:22:58;;;;;;;6.13;2.92;;;;;;;15.50;74.95;99690.63;10288729;28;20043;-69
2023/08/31 03:27:59;;;;;;;10.25;4.07;;;;;;;15.44;75.12;99684.22;10291015;28;20336;-70
2023/08/31 03:33:02;;;;;;;8.30;3.03;;;;;;;15.44;75.18;99680.66;10287768;28;20042;-68
2023/08/31 03:38:03;;;;;;;4.68;2.88;;;;;;;15.47;74.81;99689.16;10291037;28;20053;-71
2023/08/31 03:43:05;;;;;;;4.25;2.50;;;;;;;15.42;74.95;99707.16;10293520;28;20050;-69
2023/08/31 03:48:06;;;;;;;6.50;2.88;;;;;;;15.41;74.84;99716.34;10288408;28;20118;-68
2023/08/31 03:53:08;;;;;;;7.63;3.50;;;;;;;15.44;74.66;99715.88;10285897;28;20122;-69
2023/08/31 03:58:10;;;;;;;5.57;3.03;;;;;;;15.43;74.66;99725.88;10287210;28;20127;-68
2023/08/31 04:03:12;;;;;;;7.05;3.20;;;;;;;15.40;74.67;99715.50;10292068;28;20113;-68
2023/08/31 04:08:13;;;;;;;11.38;3.88;;;;;;;15.33;74.74;99725.56;10288326;28;20057;-71
2023/08/31 04:13:15;;;;;;;11.40;3.72;;;;;;;15.38;74.65;99733.88;10285939;28;20070;-69
2023/08/31 04:18:17;;;;;;;6.05;3.28;;;;;;;15.40;74.50;99749.88;10287508;28;20178;-69
2023/08/31 04:23:21;;;;;;;6.38;3.70;;;;;;;15.42;74.38;99754.03;10287139;28;20058;-70
2023/08/31 04:28:23;;;;;;;7.95;4.05;;;;;;;15.34;74.28;99764.31;10287297;28;20459;-70
2023/08/31 04:33:25;;;;;;;5.55;3.15;;;;;;;15.31;74.37;99767.47;10288690;28;20092;-71
2023/08/31 04:38:27;;;;;;;7.00;3.38;;;;;;;15.29;74.26;99758.75;10290227;28;20340;-69
2023/08/31 04:43:28;;;;;;;7.88;3.55;;;;;;;15.22;74.28;99765.00;10290080;28;20164;-69
2023/08/31 04:48:29;;;;;;;5.40;3.35;;;;;;;15.12;74.45;99772.00;10288017;28;20228;-69
2023/08/31 04:53:31;;;;;;;6.03;3.38;;;;;;;15.09;74.62;99770.56;10283018;28;20038;-68
2023/08/31 04:58:33;;;;;;;5.90;3.78;;;;;;;15.08;74.46;99782.41;10299402;28;20051;-69
2023/08/31 05:03:34;;;;;;;8.55;3.45;;;;;;;15.09;74.21;99784.09;10282396;28;20047;-69
2023/08/31 05:08:35;;;;;;;9.73;3.45;;;;;;;15.02;74.53;99789.53;10282495;28;20059;-69
2023/08/31 05:13:37;;;;;;;9.27;4.38;;;;;;;15.05;74.34;99801.81;10286723;28;20122;-68
2023/08/31 05:18:40;;;;;;;8.32;3.15;;;;;;;15.06;74.30;99800.75;10290311;28;20050;-66
2023/08/31 05:23:41;;;;;;;8.98;3.67;;;;;;;15.05;74.83;99812.66;10284605;28;20047;-67
2023/08/31 05:28:43;;;;;;;11.55;3.53;;;;;;;15.04;74.60;99819.09;10281336;28;20050;-69
2023/08/31 05:33:45;;;;;;;6.93;3.05;;;;;;;15.10;74.25;99826.34;10282939;28;20046;-69
2023/08/31 05:38:46;;;;;;;6.13;3.47;;;;;;;15.08;74.60;99821.13;10289800;28;20092;-69
2023/08/31 05:43:48;;;;;;;7.30;3.97;;;;;;;15.12;74.51;99824.25;10278050;28;20066;-69
2023/08/31 05:48:49;;;;;;;7.95;3.40;;;;;;;15.17;74.34;99820.91;10282265;28;20134;-68
2023/08/31 05:53:51;;;;;;;8.02;3.35;;;;;;;15.21;74.42;99835.66;10288313;28;20097;-68
2023/08/31 05:58:54;;;;;;;6.82;2.78;;;;;;;15.30;74.23;99834.31;10286491;28;20339;-69
2023/08/31 06:03:56;;;;;;;9.88;2.63;;;;;;;15.28;74.38;99841.84;10286879;28;20046;-71
2023/08/31 06:08:58;;;;;;;9.93;3.47;;;;;;;15.41;74.09;99846.34;10285657;28;20091;-70
2023/08/31 06:13:59;;;;;;;5.55;2.33;;;;;;;15.50;73.89;99858.56;10287873;28;20046;-66
2023/08/31 06:19:01;;;;;;;5.35;2.70;;;;;;;15.64;73.44;99856.59;10284722;28;20074;-67
2023/08/31 06:24:03;;;;;;;5.22;2.20;;;;;;;15.71;73.37;99854.63;10286587;28;20082;-65
2023/08/31 06:29:05;;;;;;;5.13;2.28;;;;;;;15.76;73.29;99854.84;10283447;28;20230;-69
2023/08/31 06:34:06;;;;;;;3.72;2.03;;;;;;;15.82;73.17;99869.38;10281536;28;20047;-68
2023/08/31 06:39:08;;;;;;;10.43;3.08;;;;;;;15.93;72.98;99865.91;10287936;28;20050;-68
2023/08/31 06:44:09;;;;;;;7.05;2.33;;;;;;;16.15;72.33;99869.06;10284485;28;20062;-66
2023/08/31 06:49:10;;;;;;;7.20;2.22;;;;;;;16.20;72.08;99873.81;10284417;28;20114;-68
2023/08/31 06:54:12;;;;;;;5.82;2.08;;;;;;;16.13;72.33;99871.16;10283891;28;20059;-67
2023/08/31 06:59:14;;;;;;;6.38;2.55;;;;;;;16.14;72.01;99872.81;10281489;28;20051;-67
2023/08/31 07:04:15;;;;;;;3.67;2.15;;;;;;;16.13;72.03;99892.00;10287140;28;20059;-68
2023/08/31 07:09:17;;;;;;;2.42;2.20;;;;;;;16.31;71.73;99893.91;10283772;28;20042;-68
2023/08/31 07:14:18;;;;;;;5.40;1.80;;;;;;;16.49;71.30;99888.50;10281520;28;20114;-70
2023/08/31 07:19:20;;;;;;;6.10;2.20;;;;;;;16.61;71.32;99886.69;10272882;28;20062;-66
2023/08/31 07:24:23;;;;;;;4.40;1.88;;;;;;;16.69;70.95;99893.69;10286215;28;20239;-68
2023/08/31 07:29:24;;;;;;;7.28;1.88;;;;;;;16.86;70.78;99899.34;10280637;28;20118;-65
2023/08/31 07:34:28;;;;;;;5.60;1.75;;;;;;;16.91;70.67;99902.22;10278057;28;20926;-66
2023/08/31 07:39:29;;;;;;;6.75;1.90;;;;;;;17.12;70.34;99897.34;10279496;28;20348;-67
2023/08/31 07:44:31;;;;;;;5.38;1.98;;;;;;;17.09;69.95;99898.63;10278653;28;20051;-66
2023/08/31 07:49:32;;;;;;;8.40;1.60;;;;;;;17.27;69.99;99908.63;10281965;28;20114;-65
2023/08/31 07:54:34;;;;;;;3.05;1.00;;;;;;;17.39;69.10;99911.38;10283202;28;20051;-67
2023/08/31 07:59:39;;;;;;;2.17;0.82;;;;;;;17.61;68.69;99915.25;10279626;28;20054;-68
2023/08/31 08:04:40;;;;;;;3.45;1.13;;;;;;;17.83;68.01;99914.66;10280767;28;20066;-66
2023/08/31 08:09:42;;;;;;;2.83;0.60;;;;;;;17.88;67.58;99922.97;10286507;28;20072;-66
2023/08/31 08:14:43;;;;;;;1.35;1.00;;;;;;;17.92;67.18;99935.03;10288109;28;20110;-66
2023/08/31 08:19:44;;;;;;;4.65;0.50;;;;;;;18.04;66.44;99938.59;10292090;28;20057;-66
2023/08/31 08:24:46;;;;;;;4.10;0.60;;;;;;;18.30;65.83;99932.94;10286440;28;20058;-65
2023/08/31 08:29:47;;;;;;;2.47;0.77;;;;;;;18.40;65.67;99928.56;10287078;28;20414;-66
2023/08/31 08:34:50;;;;;;;3.22;0.75;;;;;;;18.54;65.00;99934.59;10291749;28;20129;-65
2023/08/31 08:39:52;;;;;;;3.40;0.60;;;;;;;18.63;64.72;99948.66;10284936;28;20066;-65
2023/08/31 08:44:56;;;;;;;2.47;0.50;;;;;;;18.58;64.17;99952.09;10289581;28;20610;-66
2023/08/31 08:49:58;;;;;;;2.90;0.50;;;;;;;18.72;63.82;99951.81;10288991;28;20303;-66
2023/08/31 08:55:01;;;;;;;3.35;0.50;;;;;;;18.84;63.47;99958.13;10288754;28;20086;-64
2023/08/31 09:00:04;;;;;;;3.42;1.02;;;;;;;18.91;62.54;99961.53;10284584;28;20035;-64
2023/08/31 09:05:05;;;;;;;4.43;0.82;;;;;;;18.96;62.61;99972.53;10286983;28;20046;-64
2023/08/31 09:10:07;;;;;;;2.05;0.40;;;;;;;18.96;62.22;99974.44;10286288;28;20302;-65
2023/08/31 09:15:09;;;;;;;1.67;0.55;;;;;;;18.97;62.01;99976.06;10292927;28;20398;-66
2023/08/31 09:20:10;;;;;;;1.92;0.63;;;;;;;18.97;62.05;99976.06;10282412;28;20039;-65
2023/08/31 09:25:13;;;;;;;1.55;0.50;;;;;;;18.95;61.55;99975.50;10288117;28;20042;-66
2023/08/31 09:30:14;;;;;;;0.98;0.50;;;;;;;19.00;61.87;99970.97;10286806;28;20070;-65
2023/08/31 09:35:16;;;;;;;0.93;0.30;;;;;;;19.25;61.16;99967.09;10286712;28;20039;-67
2023/08/31 09:40:23;;;;;;;1.58;0.47;;;;;;;19.32;61.11;99966.97;10290001;28;20042;-65
2023/08/31 09:45:30;;;;;;;2.55;0.40;;;;;;;19.50;60.38;99964.03;10284518;28;20098;-67
2023/08/31 09:50:48;;;;;;;5.85;0.70;;;;;;;19.67;60.08;99963.22;10285878;28;20047;-66
2023/08/31 09:55:52;;;;;;;2.33;0.50;;;;;;;19.76;59.68;99962.63;10282198;28;20059;-66
2023/08/31 10:00:53;;;;;;;3.65;0.63;;;;;;;19.62;59.54;99970.25;10283990;28;20703;-67
2023/08/31 10:05:56;;;;;;;7.90;0.80;;;;;;;19.64;59.37;99974.66;10286464;28;20070;-64
2023/08/31 10:11:03;;;;;;;3.25;0.50;;;;;;;19.69;59.39;99961.09;10286902;28;20047;-65
2023/08/31 10:16:04;;;;;;;4.05;0.45;;;;;;;19.94;58.82;99968.91;10282899;28;20066;-66
2023/08/31 10:21:06;;;;;;;5.90;0.70;;;;;;;19.85;58.62;99968.50;10283537;28;20118;-65
2023/08/31 10:26:08;;;;;;;2.42;0.57;;;;;;;20.14;57.97;99976.59;10285474;28;20047;-66
2023/08/31 10:31:15;;;;;;;3.88;0.50;;;;;;;20.66;57.48;99970.06;10280997;28;20066;-67
2023/08/31 10:36:18;;;;;;;2.67;0.57;;;;;;;20.68;57.25;99976.09;10284628;28;20086;-66
2023/08/31 10:41:21;;;;;;;5.13;0.55;;;;;;;20.82;56.77;99965.63;10283819;28;20248;-65
2023/08/31 10:46:34;;;;;;;3.72;0.55;;;;;;;21.28;55.92;99961.53;10282995;28;20334;-67
2023/08/31 10:51:38;;;;;;;4.38;0.80;;;;;;;21.75;54.52;99960.94;10283982;28;20054;-66
2023/08/31 10:57:02;;;;;;;3.92;0.45;;;;;;;22.06;53.76;99957.63;10282202;28;20110;-67
2023/08/31 11:02:04;;;;;;;1.75;0.55;;;;;;;22.45;52.79;99947.25;10284450;28;20050;-66
2023/08/31 11:07:12;;;;;;;3.38;0.40;;;;;;;22.50;52.10;99943.72;10281739;28;20046;-67
2023/08/31 11:12:14;;;;;;;1.67;0.50;;;;;;;22.73;51.49;99950.72;10289295;28;20051;-66
2023/08/31 11:17:16;;;;;;;2.15;0.40;;;;;;;22.92;50.14;99934.63;10284506;28;20062;-66
2023/08/31 11:22:18;;;;;;;1.33;0.32;;;;;;;23.21;49.67;99936.94;10290111;28;20066;-67
2023/08/31 11:27:21;;;;;;;3.78;0.70;;;;;;;23.08;49.88;99922.63;10282231;28;20078;-67
2023/08/31 11:32:25;;;;;;;2.28;0.45;;;;;;;23.23;49.43;99932.00;10275605;28;20058;-66
2023/08/31 11:37:27;;;;;;;2.13;0.30;;;;;;;23.08;49.47;99943.75;10274562;28;20395;-67
2023/08/31 11:42:28;;;;;;;2.75;0.40;;;;;;;23.21;48.67;99936.94;10279233;28;20158;-67
2023/08/31 11:47:31;;;;;;;4.32;0.50;;;;;;;23.03;48.18;99933.59;10287302;28;20070;-67
2023/08/31 11:52:32;;;;;;;3.75;0.45;;;;;;;23.23;47.48;99929.28;10292157;28;20534;-66
2023/08/31 11:57:34;;;;;;;1.00;0.32;;;;;;;23.07;47.47;99942.94;10286358;28;20046;-66
2023/08/31 12:02:38;;;;;;;2.95;0.43;;;;;;;23.00;47.01;99936.00;10286996;28;20052;-65
2023/08/31 12:07:41;;;;;;;3.65;0.30;;;;;;;22.88;46.66;99944.47;10289294;28;20067;-66
2023/08/31 12:12:42;;;;;;;1.75;0.28;;;;;;;22.68;46.51;99945.19;10298216;28;20098;-65
2023/08/31 12:17:46;;;;;;;3.25;0.45;;;;;;;22.70;46.13;99937.53;10289172;28;20047;-65
2023/08/31 12:22:48;;;;;;;0.55;0.20;;;;;;;22.53;46.53;99949.50;10287806;28;20114;-66
2023/08/31 12:27:50;;;;;;;1.77;0.30;;;;;;;22.57;46.90;99944.31;10289045;28;20298;-69
2023/08/31 12:32:52;;;;;;;1.55;0.50;;;;;;;22.13;47.05;99952.75;10283870;28;20166;-67
2023/08/31 12:37:53;;;;;;;6.88;0.52;;;;;;;21.84;47.51;99939.41;10290774;28;20055;-65
2023/08/31 12:42:55;;;;;;;3.25;0.40;;;;;;;22.05;47.13;99934.09;10284047;28;20061;-66
2023/08/31 12:47:56;;;;;;;1.50;0.50;;;;;;;22.12;46.61;99932.78;10290889;28;20094;-66
2023/08/31 12:52:58;;;;;;;1.05;0.30;;;;;;;22.16;46.39;99927.59;10291069;28;20171;-67
2023/08/31 12:58:00;;;;;;;2.05;0.30;;;;;;;22.13;46.58;99925.38;10290733;28;20055;-66
2023/08/31 13:03:02;;;;;;;1.30;0.30;;;;;;;22.33;46.15;99920.09;10293934;28;20116;-67
2023/08/31 13:08:05;;;;;;;3.03;0.30;;;;;;;22.94;44.88;99916.78;10305185;28;20124;-67
2023/08/31 13:13:06;;;;;;;3.45;0.30;;;;;;;23.08;44.42;99917.16;10300126;28;20047;-68
2023/08/31 13:18:07;;;;;;;1.17;0.35;;;;;;;22.94;44.25;99916.78;10303377;28;20096;-67
2023/08/31 13:23:09;;;;;;;1.95;0.30;;;;;;;23.07;44.63;99910.03;10301555;28;20065;-68
2023/08/31 13:28:11;;;;;;;1.52;0.50;;;;;;;23.12;43.91;99898.25;10302405;28;20066;-67
2023/08/31 13:33:13;;;;;;;4.13;0.40;;;;;;;23.44;43.05;99898.03;10304825;28;20047;-65
2023/08/31 13:38:14;;;;;;;1.50;0.30;;;;;;;23.78;41.41;99888.50;10299653;28;20050;-68
2023/08/31 13:43:16;;;;;;;1.50;0.38;;;;;;;23.77;39.80;99887.59;10300672;28;20118;-66
2023/08/31 13:48:18;;;;;;;0.80;0.32;;;;;;;24.15;39.08;99883.50;10301074;28;20118;-67
2023/08/31 13:53:19;;;;;;;2.05;0.30;;;;;;;24.54;38.02;99893.03;10295975;28;20046;-67
2023/08/31 13:58:21;;;;;;;1.58;0.30;;;;;;;24.70;36.40;99891.88;10298245;28;20062;-65
2023/08/31 14:03:23;;;;;;;2.47;0.43;;;;;;;24.81;35.66;99900.06;10302441;28;20042;-66
2023/08/31 14:08:24;;;;;;;2.72;0.40;;;;;;;24.86;34.11;99898.13;10303774;28;20115;-68
2023/08/31 14:13:26;;;;;;;2.20;0.40;;;;;;;24.98;34.59;99888.69;10302999;28;20054;-68
2023/08/31 14:18:31;;;;;;;1.98;0.28;;;;;;;25.37;33.63;99874.19;10306571;28;20074;-67
2023/08/31 14:23:33;;;;;;;0.98;0.40;;;;;;;25.82;33.38;99880.44;10311266;28;20130;-69
2023/08/31 14:28:34;;;;;;;2.22;0.40;;;;;;;26.34;33.26;99881.59;10304215;28;20062;-69
2023/08/31 14:33:36;;;;;;;1.83;0.50;;;;;;;26.09;32.96;99877.19;10310851;28;20043;-69
2023/08/31 14:38:37;;;;;;;0.88;0.30;;;;;;;26.54;31.66;99871.44;10283259;28;20051;-68
2023/08/31 14:43:39;;;;;;;2.28;0.40;;;;;;;27.35;31.35;99877.00;10300781;28;20051;-68
2023/08/31 14:48:40;;;;;;;3.85;0.73;;;;;;;27.02;31.22;99883.25;10308628;28;20051;-68
2023/08/31 14:53:42;;;;;;;1.55;0.40;;;;;;;26.65;31.62;99881.25;10308366;28;20057;-67
2023/08/31 14:58:44;;;;;;;2.13;0.40;;;;;;;25.80;32.59;99894.50;10316067;28;20094;-69
2023/08/31 15:03:45;;;;;;;2.95;0.40;;;;;;;25.08;32.95;99900.47;10305693;28;20054;-70
2023/08/31 15:08:47;;;;;;;2.42;0.35;;;;;;;25.13;33.29;99916.94;10299022;28;20078;-70
2023/08/31 15:13:48;;;;;;;3.22;0.47;;;;;;;24.90;33.45;99915.69;10301842;28;20058;-69
2023/08/31 15:18:50;;;;;;;3.40;0.40;;;;;;;24.21;34.20;99913.69;10305418;28;20086;-69
2023/08/31 15:23:51;;;;;;;2.92;0.50;;;;;;;24.17;35.13;99913.44;10316058;28;20051;-69
2023/08/31 15:28:53;;;;;;;1.67;0.45;;;;;;;24.02;34.78;99917.00;10311940;28;20046;-68
2023/08/31 15:33:55;;;;;;;1.85;0.40;;;;;;;23.90;34.88;99910.97;10312046;28;20061;-68
2023/08/31 15:38:56;;;;;;;1.48;0.40;;;;;;;24.10;34.57;99915.63;10313062;28;20047;-68
2023/08/31 15:43:58;;;;;;;2.08;0.85;;;;;;;24.17;34.46;99920.81;10304583;28;20206;-69
2023/08/31 15:48:59;;;;;;;2.50;0.40;;;;;;;24.30;34.91;99915.59;10288628;28;20070;-67
2023/08/31 15:54:04;;;;;;;3.05;0.57;;;;;;;24.77;34.13;99918.25;10290975;28;20059;-71
2023/08/31 15:59:06;;;;;;;6.03;0.40;;;;;;;24.85;34.76;99918.47;10294943;28;20235;-70
2023/08/31 16:04:07;;;;;;;1.83;0.40;;;;;;;24.94;35.07;99926.94;10285774;28;20086;-70
2023/08/31 16:09:09;;;;;;;1.42;0.40;;;;;;;25.02;35.05;99920.88;10293684;28;20068;-71
2023/08/31 16:14:10;;;;;;;3.47;0.70;;;;;;;24.74;35.12;99919.59;10297820;28;20243;-69
2023/08/31 16:19:12;;;;;;;2.17;0.60;;;;;;;24.20;35.45;99929.34;10287622;28;20073;-69
2023/08/31 16:24:14;;;;;;;3.10;0.60;;;;;;;23.92;35.82;99919.75;10293843;28;20066;-70
2023/08/31 16:29:16;;;;;;;3.70;0.60;;;;;;;23.90;36.23;99927.47;10286164;28;20073;-70
2023/08/31 16:34:18;;;;;;;3.90;0.90;;;;;;;23.82;36.82;99915.09;10292618;28;20053;-71
2023/08/31 16:39:21;;;;;;;3.15;0.40;;;;;;;23.39;37.23;99919.97;10288940;28;20052;-70
2023/08/31 16:44:25;;;;;;;1.92;0.50;;;;;;;22.95;38.23;99931.34;10285240;28;20366;-71
2023/08/31 16:49:26;;;;;;;4.22;0.57;;;;;;;22.76;38.66;99931.78;10284861;28;20050;-70
2023/08/31 16:54:27;;;;;;;1.27;0.32;;;;;;;;;;10289753;28;20268;-70
2023/08/31 16:59:30;;;;;;;2.67;0.50;;;;;;;22.36;39.58;99938.72;10288623;28;20046;-72
2023/08/31 17:04:32;;;;;;;1.58;0.52;;;;;;;22.13;40.22;99928.94;10283615;28;20114;-69
2023/08/31 17:09:33;;;;;;;7.40;0.60;;;;;;;22.06;40.96;99922.88;10292764;28;20056;-71
2023/08/31 17:14:35;;;;;;;2.15;0.40;;;;;;;21.94;41.11;99925.81;10296267;28;20064;-68
2023/08/31 17:19:36;;;;;;;2.22;0.60;;;;;;;21.81;41.32;99925.41;10301774;28;20390;-68
2023/08/31 17:24:38;;;;;;;5.55;1.15;;;;;;;21.65;41.88;99928.03;10282633;28;20047;-70
2023/08/31 17:29:39;;;;;;;7.22;0.50;;;;;;;21.60;42.31;99930.69;10283137;28;20393;-69
2023/08/31 17:34:41;;;;;;;5.43;0.50;;;;;;;21.59;42.48;99940.00;10300643;28;20042;-69
2023/08/31 17:39:42;;;;;;;4.05;0.73;;;;;;;21.47;42.87;99953.00;10283751;28;20117;-69
2023/08/31 17:44:45;;;;;;;4.50;0.50;;;;;;;21.36;43.51;99949.31;10285107;28;20046;-69
2023/08/31 17:49:47;;;;;;;4.75;0.80;;;;;;;21.29;43.57;99951.44;10284938;28;20103;-69
2023/08/31 17:54:49;;;;;;;1.88;0.63;;;;;;;21.32;43.35;99950.91;10287641;28;20119;-66
2023/08/31 17:59:50;;;;;;;4.43;0.60;;;;;;;21.34;43.74;99960.50;10286470;28;20074;-67
2023/08/31 18:04:52;;;;;;;4.65;0.60;;;;;;;21.34;43.93;99954.19;10280943;28;20062;-69
2023/08/31 18:09:54;;;;;;;5.65;0.80;;;;;;;21.33;44.27;99963.50;10285905;28;20375;-70
2023/08/31 18:14:55;;;;;;;5.25;0.80;;;;;;;21.25;44.51;99970.25;10286183;28;20122;-69
2023/08/31 18:19:56;;;;;;;1.88;0.52;;;;;;;20.96;45.30;99989.56;10287162;28;20123;-67
2023/08/31 18:24:58;;;;;;;3.42;0.50;;;;;;;21.04;45.44;99988.31;10281229;28;20415;-68
2023/08/31 18:30:00;;;;;;;1.40;0.70;;;;;;;20.91;45.22;99989.53;10277311;28;20125;-69
2023/08/31 18:35:05;;;;;;;2.53;0.40;;;;;;;20.87;45.51;99982.06;10279610;28;20059;-69
2023/08/31 18:40:08;;;;;;;3.42;0.63;;;;;;;20.79;46.15;99986.06;10280412;28;20070;-71
2023/08/31 18:45:13;;;;;;;2.65;0.70;;;;;;;20.79;46.01;100000.56;10284570;28;20066;-71
2023/08/31 18:50:20;;;;;;;3.85;0.65;;;;;;;20.62;46.73;100005.25;10281984;28;20110;-70
2023/08/31 18:55:23;;;;;;;6.53;0.80;;;;;;;20.57;46.61;100013.31;10279035;28;20046;-70
2023/08/31 19:00:24;;;;;;;3.15;0.50;;;;;;;20.48;47.18;100017.53;10302138;28;20119;-71
2023/08/31 19:05:26;;;;;;;5.45;0.80;;;;;;;20.34;47.50;100027.97;10284810;28;20047;-72
2023/08/31 19:10:29;;;;;;;6.47;1.50;;;;;;;20.29;47.76;100031.44;10284873;28;20043;-72
2023/08/31 19:15:30;;;;;;;7.18;0.82;;;;;;;20.27;47.42;100043.69;10288151;28;20039;-71
2023/08/31 19:20:32;;;;;;;4.75;0.70;;;;;;;20.14;47.83;100044.84;10281561;28;20109;-72
2023/08/31 19:25:34;;;;;;;3.10;0.65;;;;;;;20.18;47.90;100043.25;10282105;28;20121;-71
2023/08/31 19:30:35;;;;;;;3.30;0.82;;;;;;;20.17;47.88;100049.81;10283980;28;20089;-72
2023/08/31 19:35:37;;;;;;;4.28;0.60;;;;;;;20.05;48.27;100057.25;10284399;28;20062;-70
2023/08/31 19:40:58;;;;;;;3.25;0.57;;;;;;;20.04;48.87;100061.84;10283723;28;20058;-70
2023/08/31 19:46:00;;;;;;;7.95;0.90;;;;;;;19.91;49.42;100059.47;10284661;28;20221;-70
2023/08/31 19:51:06;;;;;;;6.25;0.65;;;;;;;19.73;50.65;100068.66;10283324;28;20043;-71
2023/08/31 19:56:08;;;;;;;5.23;0.80;;;;;;;19.66;51.27;100066.03;10303911;28;20075;-72
2023/08/31 20:01:09;;;;;;;5.20;0.70;;;;;;;19.44;52.03;100074.06;10297993;28;20317;-71
2023/08/31 20:06:11;;;;;;;3.67;0.60;;;;;;;19.37;52.51;100071.47;10309959;28;20051;-72
2023/08/31 20:11:15;;;;;;;3.97;1.05;;;;;;;19.37;52.79;100068.75;10312132;28;20054;-72
2023/08/31 20:16:17;;;;;;;5.03;1.75;;;;;;;19.37;52.98;100076.94;10287745;28;20106;-70
2023/08/31 20:21:18;;;;;;;3.17;0.73;;;;;;;19.31;53.11;100080.63;10291380;28;20283;-70
2023/08/31 20:26:20;;;;;;;7.88;1.10;;;;;;;19.19;53.68;100091.53;10298644;28;20051;-71
2023/08/31 20:31:21;;;;;;;3.20;0.80;;;;;;;19.05;54.69;100086.56;10302567;28;20070;-69
2023/08/31 20:36:23;;;;;;;7.15;1.30;;;;;;;19.15;54.80;100094.97;10317415;28;20042;-72
2023/08/31 20:41:24;;;;;;;4.35;0.80;;;;;;;19.16;54.68;100091.19;10293299;28;20062;-70
2023/08/31 20:46:26;;;;;;;4.63;0.93;;;;;;;19.11;55.03;100104.69;10290445;28;20054;-72
2023/08/31 20:51:27;;;;;;;1.75;0.68;;;;;;;19.11;55.12;100108.25;10287840;28;20432;-72
2023/08/31 20:56:29;;;;;;;3.47;1.13;;;;;;;19.00;55.92;100109.09;10286467;28;20362;-73
2023/08/31 21:01:31;;;;;;;6.00;1.40;;;;;;;18.94;56.32;100093.69;10288224;28;20293;-72
2023/08/31 21:06:33;;;;;;;9.45;1.20;;;;;;;18.86;56.70;100094.03;10283492;28;20047;-70
2023/08/31 21:11:35;;;;;;;6.47;1.45;;;;;;;18.78;57.18;100103.38;10284792;28;20063;-73
2023/08/31 21:16:36;;;;;;;3.55;1.10;;;;;;;18.63;57.96;100101.09;10296025;28;20651;-74
2023/08/31 21:21:38;;;;;;;5.20;1.13;;;;;;;18.63;58.08;100092.94;10286838;28;20063;-70
2023/08/31 21:26:39;;;;;;;4.70;1.73;;;;;;;18.72;58.20;100097.00;10286926;28;20070;-72
2023/08/31 21:31:41;;;;;;;3.78;0.90;;;;;;;18.80;58.51;100091.22;10281321;28;20094;-70
2023/08/31 21:36:42;;;;;;;6.40;1.48;;;;;;;18.80;58.62;100082.22;10290060;28;20109;-75
2023/08/31 21:41:44;;;;;;;5.38;1.38;;;;;;;18.73;58.90;100090.47;10280161;28;20109;-75
2023/08/31 21:46:45;;;;;;;4.28;1.00;;;;;;;18.64;59.37;100091.88;10285640;28;20089;-71
2023/08/31 21:51:46;;;;;;;6.78;1.00;;;;;;;18.62;59.44;100094.84;10285370;28;20066;-74
2023/08/31 21:56:48;;;;;;;7.22;1.35;;;;;;;18.58;59.58;100090.94;10283718;28;20062;-71
2023/08/31 22:01:49;;;;;;;6.35;1.67;;;;;;;18.55;59.90;100098.75;10285657;28;20062;-71
2023/08/31 22:06:51;;;;;;;5.07;1.20;;;;;;;18.62;59.83;100097.56;10284591;28;20110;-71
2023/08/31 22:11:52;;;;;;;7.18;1.88;;;;;;;18.68;60.20;100098.53;10286925;28;20065;-72
2023/08/31 22:16:54;;;;;;;6.32;1.83;;;;;;;18.63;60.62;100082.06;10353441;28;20050;-70
2023/08/31 22:21:56;;;;;;;4.03;1.65;;;;;;;18.68;60.87;100089.50;10337016;28;20128;-70
2023/08/31 22:26:58;;;;;;;7.90;1.65;;;;;;;18.63;61.55;100084.78;10327735;28;20290;-72
2023/08/31 22:31:59;;;;;;;4.80;1.60;;;;;;;18.49;62.14;100077.91;10326411;28;20051;-69
2023/08/31 22:37:03;;;;;;;5.57;1.77;;;;;;;18.48;62.52;100084.41;10327625;28;20046;-72
2023/08/31 22:42:05;;;;;;;4.88;1.33;;;;;;;18.45;62.71;100077.53;10302560;28;20118;-71
2023/08/31 22:47:06;;;;;;;6.05;1.88;;;;;;;18.45;62.96;100080.25;10285074;28;20126;-72
2023/08/31 22:52:09;;;;;;;3.42;1.10;;;;;;;18.54;63.12;100086.19;10286116;28;20114;-76
2023/08/31 22:57:11;;;;;;;5.28;1.52;;;;;;;18.58;63.21;100081.91;10282108;28;20050;-73
2023/08/31 23:02:12;;;;;;;3.88;2.15;;;;;;;18.54;63.60;100084.31;10275830;28;20074;-73
2023/08/31 23:07:14;;;;;;;7.05;2.45;;;;;;;18.49;63.96;100077.91;10283561;28;20094;-73
2023/08/31 23:12:15;;;;;;;3.40;1.48;;;;;;;18.37;64.33;100084.16;10282251;28;20043;-75
2023/08/31 23:17:17;;;;;;;2.85;1.40;;;;;;;18.39;64.38;100081.19;10294973;28;20077;-75
2023/08/31 23:22:18;;;;;;;5.07;1.83;;;;;;;18.19;64.92;100074.19;10280499;28;20114;-74